Time;durP1;ratioP1;P1;durP2;ratioP2;P2;SDS_P1;SDS_P2;PMS_P1;PMS_P2;Temp;Humidity;BMP_temperature;BMP_pressure;BME280_temperature;BME280_humidity;BME280_pressure;Samples;Min_cycle;Max_cycle;Signal;HPM_P1;HPM_P2
2022/01/21 00:01:38;;;;;;;;;9.25;9.25;;;;;5.45;68.15;102963.13;5111638;27;45270;-81
2022/01/21 00:04:05;;;;;;;;;10.75;10.75;;;;;5.45;68.53;102960.53;5140172;27;45717;-80
2022/01/21 00:06:31;;;;;;;;;10.25;6.00;;;;;5.40;68.52;102970.72;5140841;27;45371;-78
2022/01/21 00:08:57;;;;;;;;;7.00;7.00;;;;;4.85;68.46;102880.03;5131811;27;45349;-78
2022/01/21 00:11:25;;;;;;;;;7.50;4.00;;;;;5.12;69.08;102947.13;5121286;27;45321;-80
2022/01/21 00:13:50;;;;;;;;;9.00;6.75;;;;;5.19;68.70;102973.63;5119324;27;45382;-81
2022/01/21 00:16:19;;;;;;;;;6.75;5.00;;;;;5.21;69.06;102961.56;5132056;27;45340;-79
2022/01/21 00:18:54;;;;;;;;;7.50;6.75;;;;;5.20;69.17;102950.19;5134015;27;45398;-82
2022/01/21 00:32:16;;;;;;;;;8.75;6.00;;;;;5.07;69.53;102917.16;5131585;27;45326;-78
2022/01/21 00:34:41;;;;;;;;;9.00;9.00;;;;;5.21;69.10;102949.44;5119554;27;46428;-79
2022/01/21 00:37:07;;;;;;;;;7.00;7.00;;;;;5.10;69.55;102904.28;5123309;27;45376;-82
2022/01/21 00:39:34;;;;;;;;;10.00;10.00;;;;;5.19;68.70;102918.75;5125887;27;45529;-82
2022/01/21 00:42:30;;;;;;;;;10.25;10.25;;;;;5.08;69.46;102905.00;5126726;27;45545;-82
2022/01/21 00:45:00;;;;;;;;;9.25;8.50;;;;;5.12;68.84;102907.03;5127892;27;46332;-77
2022/01/21 00:47:28;;;;;;;;;8.50;5.75;;;;;5.21;68.88;102911.91;5133570;27;45196;-80
2022/01/21 00:49:54;;;;;;;;;9.50;8.75;;;;;5.11;69.08;102889.53;5139988;27;45334;-81
2022/01/21 00:52:20;;;;;;;;;12.00;9.00;;;;;5.29;69.54;102919.44;5140714;27;45376;-82
2022/01/21 00:54:45;;;;;;;;;6.75;5.25;;;;;5.38;68.99;102932.19;5129508;27;45349;-82
2022/01/21 00:57:10;;;;;;;;;10.50;9.00;;;;;5.26;68.73;102921.88;5118822;27;45266;-82
2022/01/21 00:59:36;;;;;;;;;9.25;7.25;;;;;5.42;69.37;102942.03;5119617;27;45432;-82
2022/01/21 01:02:02;;;;;;;;;7.50;6.75;;;;;5.28;68.72;102907.19;5126527;27;45526;-82
2022/01/21 01:04:27;;;;;;;;;15.50;9.50;;;;;5.42;68.77;102939.44;5124211;27;45428;-82
2022/01/21 01:06:53;;;;;;;;;9.50;9.00;;;;;5.31;68.73;102924.78;5118750;27;45501;-78
2022/01/21 01:09:18;;;;;;;;;8.50;7.00;;;;;5.34;68.74;102933.72;5120463;27;46576;-82
2022/01/21 01:19:58;;;;;;;;;7.50;6.50;;;;;5.20;69.37;102926.69;5126048;27;45438;-81
2022/01/21 01:22:43;;;;;;;;;10.50;6.25;;;;;5.21;69.25;102935.44;5139778;27;45312;-80
2022/01/21 01:27:54;;;;;;;;;10.00;4.00;;;;;5.07;69.88;102913.66;5139735;27;45395;-80
2022/01/21 01:30:22;;;;;;;;;9.00;8.00;;;;;5.03;69.58;102920.41;5134538;27;45288;-82
2022/01/21 01:32:50;;;;;;;;;9.25;9.25;;;;;5.00;70.06;102927.09;5119087;27;45245;-81
2022/01/21 01:35:19;;;;;;;;;8.00;8.00;;;;;4.92;69.92;102931.84;5134589;27;45514;-81
2022/01/21 01:50:59;;;;;;;;;12.25;10.75;;;;;4.57;71.34;102922.59;5130581;27;45483;-77
2022/01/21 01:53:34;;;;;;;;;10.25;7.75;;;;;4.56;71.23;102933.84;5139321;27;45313;-82
2022/01/21 01:56:00;;;;;;;;;12.33;12.33;;;;;4.57;71.61;102939.97;5123000;27;46273;-80
2022/01/21 01:58:25;;;;;;;;;7.00;6.25;;;;;4.60;71.78;102952.31;5118450;27;45303;-84
2022/01/21 02:00:50;;;;;;;;;9.00;8.00;;;;;4.58;71.57;102949.59;5118594;27;45413;-81
2022/01/21 02:03:16;;;;;;;;;14.75;10.75;;;;;4.54;71.44;102945.88;5119647;27;45252;-80
2022/01/21 02:05:44;;;;;;;;;7.25;7.25;;;;;4.17;72.01;102890.28;5128312;27;45474;-81
2022/01/21 02:08:11;;;;;;;;;11.25;10.00;;;;;4.39;72.08;102930.91;5124240;27;45495;-82
2022/01/21 02:10:37;;;;;;;;;13.25;9.75;;;;;4.21;72.20;102910.59;5131349;27;45303;-82
2022/01/21 02:13:19;;;;;;;;;10.75;10.75;;;;;4.32;72.04;102934.78;5141120;27;45462;-82
2022/01/21 02:15:59;;;;;;;;;12.25;8.75;;;;;3.98;72.54;102874.19;5135120;27;46533;-81
2022/01/21 02:21:30;;;;;;;;;10.25;7.00;;;;;4.28;72.38;102935.38;5126987;27;45366;-81
2022/01/21 02:23:58;;;;;;;;;9.00;9.00;;;;;4.33;72.46;102951.34;5123105;27;45460;-81
2022/01/21 02:26:24;;;;;;;;;10.25;7.00;;;;;4.23;72.73;102928.94;5131280;27;45503;-82
2022/01/21 02:28:49;;;;;;;;;9.75;9.25;;;;;4.13;72.60;102930.03;5142821;27;45362;-82
2022/01/21 02:31:15;;;;;;;;;10.00;8.50;;;;;3.89;72.90;102890.13;5142231;27;45453;-82
2022/01/21 02:33:40;;;;;;;;;9.50;9.50;;;;;4.19;72.69;102955.63;5140940;27;45253;-82
2022/01/21 02:36:06;;;;;;;;;9.00;9.00;;;;;3.98;73.14;102918.53;5128253;27;46183;-83
2022/01/21 02:38:31;;;;;;;;;13.00;10.00;;;;;3.98;73.12;102911.59;5131538;27;45320;-82
2022/01/21 02:40:56;;;;;;;;;9.75;8.75;;;;;4.01;72.59;102923.97;5129431;27;45389;-80
2022/01/21 02:43:22;;;;;;;;;9.50;8.75;;;;;4.01;73.30;102929.19;5142596;27;45459;-81
2022/01/21 02:45:48;;;;;;;;;9.00;7.75;;;;;4.07;73.46;102944.34;5127828;27;46623;-79
2022/01/21 02:48:14;;;;;;;;;15.67;9.67;;;;;3.75;73.63;102890.88;5141634;27;45339;-79
2022/01/21 02:50:39;;;;;;;;;10.00;6.50;;;;;4.04;73.37;102949.34;5141504;27;45221;-80
2022/01/21 02:55:49;;;;;;;;;5.50;5.50;;;;;3.67;73.29;102879.91;5140173;27;45758;-79
2022/01/21 02:58:15;;;;;;;;;9.00;8.25;;;;;3.79;73.37;102913.75;5105579;27;45354;-80
2022/01/21 03:00:40;;;;;;;;;5.75;5.75;;;;;3.69;74.07;102900.88;5121260;27;45302;-78
2022/01/21 03:03:06;;;;;;;;;12.67;9.00;;;;;3.63;73.96;102901.38;5120824;27;45393;-81
2022/01/21 03:05:34;;;;;;;;;5.67;5.33;;;;;3.60;73.57;102897.63;5120995;27;45317;-83
2022/01/21 03:08:00;;;;;;;;;9.00;6.00;;;;;3.77;73.79;102930.09;5101592;27;45468;-81
2022/01/21 03:10:26;;;;;;;;;14.00;10.00;;;;;3.66;74.06;102908.50;5120264;27;45306;-81
2022/01/21 03:12:52;;;;;;;;;9.00;9.00;;;;;3.50;74.23;102883.03;5120707;27;45333;-82
2022/01/21 03:15:17;;;;;;;;;10.67;9.00;;;;;3.74;73.96;102925.56;5140342;27;45405;-82
2022/01/21 03:17:43;;;;;;;;;11.75;7.00;;;;;3.73;74.16;102934.19;5138719;27;45484;-80
2022/01/21 03:20:09;;;;;;;;;9.00;5.00;;;;;3.77;73.90;102931.00;5120892;27;45355;-81
2022/01/21 03:22:36;;;;;;;;;12.75;10.25;;;;;3.65;74.24;102920.63;5140299;27;45256;-82
2022/01/21 03:25:03;;;;;;;;;1.00;1.00;;;;;3.60;74.22;102908.03;5120034;27;46241;-81
2022/01/21 03:27:28;;;;;;;;;9.00;8.00;;;;;3.56;73.99;102917.38;5120890;27;45341;-81
2022/01/21 03:29:53;;;;;;;;;8.67;8.00;;;;;3.73;74.11;102944.63;5107019;27;45576;-79
2022/01/21 03:32:19;;;;;;;;;7.33;6.67;;;;;3.71;73.87;102938.38;5136163;27;45884;-81
2022/01/21 03:34:44;;;;;;;;;9.00;9.00;;;;;3.73;74.42;102947.22;5140938;27;45952;-81
2022/01/21 03:37:10;;;;;;;;;10.67;6.67;;;;;3.70;74.53;102941.78;5138989;27;45391;-82
2022/01/21 03:39:35;;;;;;;;;8.33;8.33;;;;;3.74;74.49;102964.66;5122060;27;45357;-80
2022/01/21 03:42:00;;;;;;;;;8.00;5.67;;;;;3.67;74.85;102954.59;5138869;27;45512;-81
2022/01/21 03:44:26;;;;;;;;;14.33;10.67;;;;;3.61;74.59;102949.84;5139816;27;45592;-80
2022/01/21 03:46:51;;;;;;;;;8.00;5.67;;;;;3.57;74.48;102941.72;5140746;27;45392;-81
2022/01/21 03:49:17;;;;;;;;;20.33;14.00;;;;;3.75;74.62;102955.16;5138762;27;45407;-79
2022/01/21 03:51:42;;;;;;;;;11.33;8.33;;;;;3.53;74.40;102911.91;5135389;27;45304;-79
2022/01/21 03:54:08;;;;;;;;;4.00;2.00;;;;;3.76;74.50;102939.59;5119479;27;46674;-79
2022/01/21 03:56:35;;;;;;;;;8.67;5.33;;;;;3.78;73.70;102937.09;5126270;27;45255;-77
2022/01/21 03:59:00;;;;;;;;;13.67;9.00;;;;;4.05;73.62;102964.19;5142198;27;46068;-76
2022/01/21 04:01:28;;;;;;;;;10.00;9.00;;;;;3.85;73.62;102919.41;5141498;27;45222;-77
2022/01/21 04:03:53;;;;;;;;;12.67;9.67;;;;;3.92;73.02;102934.69;5122892;27;1145848;-78
2022/01/21 04:06:19;;;;;;;;;10.00;10.00;;;;;3.75;73.32;102916.94;5147896;27;45411;-81
2022/01/21 04:08:45;;;;;;;;;8.00;8.00;;;;;4.04;73.23;102968.50;5142383;27;45499;-80
2022/01/21 04:11:10;;;;;;;;;6.00;6.00;;;;;3.91;73.37;102951.13;5160230;27;44847;-79
2022/01/21 04:13:35;;;;;;;;;7.33;7.33;;;;;3.77;73.63;102917.06;5140863;27;47532;-82
2022/01/21 04:16:02;;;;;;;;;6.00;6.00;;;;;4.05;73.35;102970.31;5154200;27;45344;-79
2022/01/21 04:18:27;;;;;;;;;5.33;5.33;;;;;3.96;73.37;102941.00;5146807;27;45348;-79
2022/01/21 04:21:02;;;;;;;;;6.00;6.00;;;;;4.10;73.71;102973.25;5144284;27;45273;-81
2022/01/21 04:23:28;;;;;;;;;7.75;6.00;;;;;3.91;73.04;102942.41;5135965;27;45439;-78
2022/01/21 04:25:54;;;;;;;;;7.33;7.33;;;;;3.95;73.33;102960.06;5126050;27;45329;-82
2022/01/21 04:28:20;;;;;;;;;14.00;13.33;;;;;4.12;73.37;102977.78;5130633;27;45430;-82
2022/01/21 04:30:46;;;;;;;;;15.33;12.00;;;;;4.22;73.00;102992.38;5131425;27;45486;-80
2022/01/21 04:33:12;;;;;;;;;10.00;8.00;;;;;3.86;72.90;102929.03;5134532;27;45565;-82
2022/01/21 04:35:47;;;;;;;;;7.67;7.67;;;;;4.24;72.56;102991.66;5152412;27;45210;-82
2022/01/21 04:38:16;;;;;;;;;8.25;7.25;;;;;4.06;72.87;102952.97;5150433;27;45223;-83
2022/01/21 04:40:51;;;;;;;;;7.50;5.75;;;;;4.05;72.63;102943.34;5149497;27;45343;-82
2022/01/21 04:48:45;;;;;;;;;9.33;9.00;;;;;4.31;72.46;102989.47;5147105;27;45387;-82
2022/01/21 04:51:20;;;;;;;;;7.33;7.33;;;;;4.03;72.43;102922.38;5129546;27;45298;-82
2022/01/21 04:53:48;;;;;;;;;22.33;9.33;;;;;4.09;72.33;102937.53;5124607;27;48394;-79
2022/01/21 04:56:14;;;;;;;;;13.00;12.67;;;;;4.11;72.48;102930.72;5127975;27;45423;-82
2022/01/21 04:58:40;;;;;;;;;11.00;9.00;;;;;4.25;72.25;102977.81;5128211;27;45309;-82
2022/01/21 05:01:07;;;;;;;;;8.33;8.33;;;;;4.03;72.13;102940.63;5134525;27;45229;-81
2022/01/21 05:03:34;;;;;;;;;11.00;11.00;;;;;4.28;72.29;102971.88;5132260;27;45614;-78
2022/01/21 05:06:01;;;;;;;;;7.33;7.33;;;;;4.23;72.64;102968.09;5125187;27;45540;-79
2022/01/21 05:08:53;;;;;;;;;6.33;6.00;;;;;4.21;72.68;102964.47;5124437;27;45265;-80
2022/01/21 05:11:13;;;;;;;;;14.33;9.67;;;;;4.35;72.25;102986.28;5118764;27;45549;-78
2022/01/21 05:13:50;;;;;;;;;9.00;8.67;;;;;3.97;72.49;102921.94;5123456;27;46210;-80
2022/01/21 05:18:54;;;;;;;;;5.33;5.33;;;;;3.95;72.97;102919.22;5119460;27;45227;-81
2022/01/21 05:21:20;;;;;;;;;7.50;7.50;;;;;4.33;72.54;102973.13;5120183;27;45484;-80
2022/01/21 05:23:47;;;;;;;;;8.33;8.33;;;;;4.25;72.19;102956.03;5120213;27;45602;-79
2022/01/21 05:26:13;;;;;;;;;15.75;10.75;;;;;4.37;72.25;102980.34;5100783;27;45947;-80
2022/01/21 05:28:39;;;;;;;;;13.00;7.33;;;;;4.08;72.23;102938.31;5121537;27;45482;-78
2022/01/21 05:31:04;;;;;;;;;11.25;10.00;;;;;4.06;72.47;102940.81;5121018;27;45492;-79
2022/01/21 05:33:30;;;;;;;;;9.00;7.67;;;;;4.05;72.59;102941.63;5139781;27;46416;-78
2022/01/21 05:35:55;;;;;;;;;6.25;6.25;;;;;4.27;72.16;102980.53;5125973;27;45175;-76
2022/01/21 05:38:21;;;;;;;;;10.33;10.00;;;;;4.03;72.64;102934.50;5121486;27;45285;-81
2022/01/21 05:40:50;;;;;;;;;5.00;5.00;;;;;4.27;72.50;102981.41;5121150;27;45230;-80
2022/01/21 05:43:16;;;;;;;;;6.00;6.00;;;;;4.25;72.53;102982.13;5130334;27;46252;-82
2022/01/21 05:48:25;;;;;;;;;8.50;5.75;;;;;4.30;72.46;102999.03;5118932;27;45259;-82
2022/01/21 05:50:51;;;;;;;;;10.33;8.67;;;;;4.25;72.62;102996.06;5118783;27;45415;-82
2022/01/21 05:53:22;;;;;;;;;7.50;6.25;;;;;4.10;73.01;102995.03;5118624;27;45843;-83
2022/01/21 05:55:47;;;;;;;;;9.75;9.50;;;;;3.82;73.15;102960.00;5119981;27;45386;-81
2022/01/21 05:58:13;;;;;;;;;6.75;5.50;;;;;3.97;73.12;102993.25;5118923;27;45175;-82
2022/01/21 06:00:40;;;;;;;;;10.00;6.00;;;;;4.08;72.73;103011.34;5119097;27;45223;-77
2022/01/21 06:03:06;;;;;;;;;8.33;7.67;;;;;4.09;73.00;103016.66;5119133;27;46091;-81
2022/01/21 06:05:33;;;;;;;;;11.00;6.00;;;;;4.12;72.86;103009.06;5122557;27;45451;-80
2022/01/21 06:08:04;;;;;;;;;6.67;5.67;;;;;4.19;73.31;103020.84;5139387;27;45471;-82
2022/01/21 06:10:29;;;;;;;;;9.67;6.33;;;;;4.08;72.75;102994.00;5139586;27;45415;-81
2022/01/21 06:12:56;;;;;;;;;9.00;7.33;;;;;4.15;72.63;103005.78;5137906;27;46131;-78
2022/01/21 06:15:22;;;;;;;;;10.25;3.25;;;;;4.14;72.43;103001.34;5119942;27;45321;-81
2022/01/21 06:17:47;;;;;;;;;6.00;5.00;;;;;4.26;72.34;103018.75;5119080;27;45243;-81
2022/01/21 06:20:12;;;;;;;;;7.50;6.00;;;;;4.15;72.22;103004.06;5118874;27;45455;-81
2022/01/21 06:22:38;;;;;;;;;6.25;6.25;;;;;4.07;72.68;102989.59;5117275;27;45538;-81
2022/01/21 06:25:04;;;;;;;;;11.00;5.33;;;;;4.19;72.44;103005.19;5123081;27;45464;-82
2022/01/21 06:27:32;;;;;;;;;5.00;5.00;;;;;4.29;72.71;103028.53;5104949;27;45360;-80
2022/01/21 06:29:57;;;;;;;;;8.00;7.50;;;;;4.10;72.80;102995.03;5118046;27;45376;-82
2022/01/21 06:32:25;;;;;;;;;4.33;3.33;;;;;3.93;72.47;102966.88;5116978;27;46420;-83
2022/01/21 06:34:51;;;;;;;;;9.00;8.00;;;;;4.23;72.22;103018.56;5118498;27;45260;-83
2022/01/21 06:37:17;;;;;;;;;5.00;4.67;;;;;4.20;72.93;103025.28;5128181;27;45285;-83
2022/01/21 06:39:43;;;;;;;;;6.00;6.00;;;;;3.99;72.88;102988.13;5126719;27;45435;-81
2022/01/21 06:42:09;;;;;;;;;8.33;6.33;;;;;3.75;72.95;102965.56;5118020;27;45467;-80
2022/01/21 06:44:34;;;;;;;;;17.75;13.25;;;;;4.11;73.26;103027.22;5117856;27;45295;-82
2022/01/21 06:47:00;;;;;;;;;5.67;5.00;;;;;4.11;73.10;103037.66;5120002;27;45325;-82
2022/01/21 06:49:25;;;;;;;;;8.00;6.00;;;;;4.15;73.05;103037.06;5103438;27;45526;-79
2022/01/21 06:51:51;;;;;;;;;6.33;5.33;;;;;4.02;73.07;102998.81;5118102;27;45507;-78
2022/01/21 06:54:16;;;;;;;;;11.00;11.00;;;;;4.19;73.14;103032.19;5113996;27;45396;-83
2022/01/21 06:56:41;;;;;;;;;4.67;4.33;;;;;3.83;72.90;102967.03;5122708;27;45261;-80
2022/01/21 06:59:07;;;;;;;;;9.67;7.33;;;;;3.97;72.54;102992.34;5128233;27;45299;-83
2022/01/21 07:01:32;;;;;;;;;6.00;6.00;;;;;4.14;72.46;103033.56;5125501;27;45355;-82
2022/01/21 07:03:58;;;;;;;;;16.00;10.00;;;;;3.96;72.53;102991.44;5121185;27;45175;-85
2022/01/21 07:06:23;;;;;;;;;6.00;6.00;;;;;4.23;72.26;103039.41;5124080;27;45172;-85
2022/01/21 07:08:49;;;;;;;;;9.00;7.00;;;;;4.05;72.20;103012.06;5128132;27;45420;-83
2022/01/21 07:11:15;;;;;;;;;7.00;7.00;;;;;4.36;72.55;103059.44;5139705;27;46359;-81
2022/01/21 07:13:40;;;;;;;;;13.33;9.67;;;;;4.25;72.21;103040.44;5142272;27;45439;-86
2022/01/21 07:16:06;;;;;;;;;7.33;5.67;;;;;4.31;72.11;103053.00;5138983;27;45288;-88
2022/01/21 07:18:31;;;;;;;;;5.67;3.67;;;;;4.02;72.46;102996.19;5126194;27;45482;-80
2022/01/21 07:20:57;;;;;;;;;9.00;6.67;;;;;4.07;72.25;103012.16;5121666;27;46215;-79
2022/01/21 07:23:22;;;;;;;;;7.33;7.33;;;;;4.37;72.17;103058.63;5122404;27;45372;-83
2022/01/21 07:25:48;;;;;;;;;9.50;8.25;;;;;4.27;72.30;103035.31;5121225;27;45288;-81
2022/01/21 07:28:13;;;;;;;;;7.25;7.25;;;;;4.38;72.01;103050.03;5121113;27;45376;-81
2022/01/21 07:30:40;;;;;;;;;7.25;6.00;;;;;4.25;72.14;103021.25;5124511;27;46681;-83
2022/01/21 07:33:05;;;;;;;;;6.25;6.25;;;;;4.18;72.16;103013.81;5121735;27;45487;-83
2022/01/21 07:35:31;;;;;;;;;8.50;6.75;;;;;4.55;72.08;103083.41;5135673;27;45178;-84
2022/01/21 07:37:56;;;;;;;;;16.75;10.75;;;;;4.32;71.62;103038.25;5122087;27;45144;-83
2022/01/21 07:40:22;;;;;;;;;13.75;11.00;;;;;4.08;72.03;102987.88;5125505;27;45444;-84
2022/01/21 07:42:47;;;;;;;;;10.75;6.50;;;;;4.38;71.96;103067.41;5121060;27;45360;-82
2022/01/21 07:45:12;;;;;;;;;13.50;9.00;;;;;4.29;72.01;103038.97;5120596;27;45271;-81
2022/01/21 07:47:38;;;;;;;;;13.00;12.00;;;;;4.39;71.92;103057.06;5126683;27;45384;-82
2022/01/21 07:50:04;;;;;;;;;12.50;10.00;;;;;4.54;71.86;103075.47;5141360;27;46081;-83
2022/01/21 07:52:29;;;;;;;;;12.67;9.00;;;;;4.29;71.78;103038.97;5141462;27;45364;-81
2022/01/21 07:54:55;;;;;;;;;10.00;9.25;;;;;4.49;71.59;103066.44;5128739;27;45249;-80
2022/01/21 07:57:20;;;;;;;;;9.75;8.50;;;;;4.23;71.76;103018.56;5137383;27;45491;-82
2022/01/21 07:59:46;;;;;;;;;10.00;7.00;;;;;4.36;71.90;103035.94;5129574;27;46262;-81
2022/01/21 08:02:11;;;;;;;;;10.25;10.00;;;;;4.36;71.53;103037.66;5129703;27;45578;-85
2022/01/21 08:04:39;;;;;;;;;8.75;6.25;;;;;4.80;71.04;103111.22;5137322;27;45439;-81
2022/01/21 08:07:05;;;;;;;;;12.25;7.50;;;;;4.65;71.06;103076.19;5133640;27;45487;-80
2022/01/21 08:09:31;;;;;;;;;14.00;10.75;;;;;3.64;71.30;102903.16;5101514;27;47116;-81
2022/01/21 08:11:56;;;;;;;;;9.50;9.50;;;;;4.69;71.57;103081.75;5120152;27;45481;-83
2022/01/21 08:14:23;;;;;;;;;8.50;8.50;;;;;4.39;70.86;103017.00;5119026;27;45474;-83
2022/01/21 08:16:51;;;;;;;;;11.00;9.50;;;;;4.08;71.07;102994.00;5120750;27;45460;-82
2022/01/21 08:19:16;;;;;;;;;11.25;10.00;;;;;4.68;71.20;103076.44;5120289;27;46588;-82
2022/01/21 08:21:42;;;;;;;;;8.50;8.50;;;;;4.07;71.10;102963.50;5120119;27;45400;-85
2022/01/21 08:24:09;;;;;;;;;13.25;10.50;;;;;4.02;70.77;102945.75;5139949;27;45473;-82
2022/01/21 08:26:38;;;;;;;;;7.00;6.00;;;;;4.99;70.80;103116.88;5125764;27;45714;-82
2022/01/21 08:29:05;;;;;;;;;13.75;12.00;;;;;4.05;70.42;102944.25;5119838;27;46100;-83
2022/01/21 08:31:32;;;;;;;;;14.50;10.00;;;;;4.58;70.53;103028.81;5120573;27;45408;-79
2022/01/21 08:33:58;;;;;;;;;18.00;11.75;;;;;4.36;70.81;102980.25;5122146;27;45470;-87
2022/01/21 08:36:25;;;;;;;;;15.00;10.00;;;;;4.98;70.82;103082.84;5128733;27;45365;-88
2022/01/21 08:38:51;;;;;;;;;11.25;9.50;;;;;4.92;70.34;103058.91;5140627;27;46508;-86
2022/01/21 08:41:17;;;;;;;;;18.25;17.75;;;;;5.23;70.43;103107.19;5132674;27;45349;-82
2022/01/21 08:43:43;;;;;;;;;7.25;7.25;;;;;5.29;69.89;103106.69;5122491;27;45342;-78
2022/01/21 08:46:09;;;;;;;;;9.25;8.50;;;;;5.41;69.90;103112.75;5140821;27;45360;-83
2022/01/21 08:48:35;;;;;;;;;9.00;9.00;;;;;5.25;69.16;103078.56;5139885;27;46130;-83
2022/01/21 08:51:07;;;;;;;;;24.00;22.67;;;;;5.53;69.86;103121.41;5121794;27;45741;-82
2022/01/21 08:53:36;;;;;;;;;13.50;9.50;;;;;5.45;69.25;103104.28;5127693;27;45349;-83
2022/01/21 08:56:04;;;;;;;;;14.50;11.25;;;;;5.65;69.70;103131.75;5136237;27;45431;-84
2022/01/21 08:58:29;;;;;;;;;13.50;11.00;;;;;5.73;69.21;103120.97;5120205;27;48666;-81
2022/01/21 09:00:55;;;;;;;;;15.00;10.00;;;;;5.85;69.24;103125.19;5129550;27;45462;-83
2022/01/21 09:03:21;;;;;;;;;14.00;9.25;;;;;5.80;68.26;103097.84;5118869;27;45451;-80
2022/01/21 09:05:50;;;;;;;;;11.50;11.50;;;;;5.81;67.63;103076.13;5118674;27;45220;-82
2022/01/21 09:08:17;;;;;;;;;13.00;11.50;;;;;5.97;67.34;103089.41;5139928;27;46221;-82
2022/01/21 09:10:43;;;;;;;;;13.25;12.25;;;;;6.18;68.04;103123.88;5120457;27;45544;-81
2022/01/21 09:13:12;;;;;;;;;12.00;10.00;;;;;6.18;67.71;103135.25;5140075;27;45358;-80
2022/01/21 09:15:38;;;;;;;;;14.25;11.75;;;;;6.16;68.04;103133.34;5129598;27;45218;-81
2022/01/21 09:18:05;;;;;;;;;21.25;11.75;;;;;6.15;67.28;103127.22;5131020;27;45305;-82
2022/01/21 09:20:36;;;;;;;;;10.50;10.00;;;;;6.24;67.38;103137.38;5121030;27;45347;-79
2022/01/21 09:23:03;;;;;;;;;16.25;14.25;;;;;6.21;67.18;103127.59;5140181;27;45260;-80
2022/01/21 09:25:29;;;;;;;;;19.50;15.25;;;;;6.08;67.10;103098.84;5140104;27;45192;-80
2022/01/21 09:27:58;;;;;;;;;15.75;12.00;;;;;6.14;67.60;103112.34;5138647;27;45289;-81
2022/01/21 09:30:24;;;;;;;;;13.25;12.25;;;;;6.24;67.09;103140.88;5139686;27;45319;-80
2022/01/21 09:32:50;;;;;;;;;22.00;14.75;;;;;5.86;66.91;103080.84;5122887;27;45511;-82
2022/01/21 09:35:16;;;;;;;;;20.25;13.50;;;;;6.14;66.96;103135.88;5119763;27;45384;-81
2022/01/21 09:37:41;;;;;;;;;17.00;13.75;;;;;5.87;66.98;103106.19;5100112;27;46761;-82
2022/01/21 09:40:08;;;;;;;;;12.00;11.50;;;;;6.13;67.66;103128.81;5105479;27;45531;-82
2022/01/21 09:42:35;;;;;;;;;16.50;14.50;;;;;6.07;67.05;103114.44;5118188;27;45402;-83
2022/01/21 09:45:07;;;;;;;;;12.50;12.50;;;;;6.07;67.09;103112.75;5118847;27;45371;-80
2022/01/21 09:47:33;;;;;;;;;14.25;11.50;;;;;6.21;67.03;103138.06;5128932;27;45395;-82
2022/01/21 09:50:00;;;;;;;;;16.00;13.00;;;;;6.39;66.72;103180.19;5118837;27;45245;-80
2022/01/21 09:52:28;;;;;;;;;11.75;11.75;;;;;6.22;66.55;103159.91;5118028;27;45339;-84
2022/01/21 09:54:53;;;;;;;;;14.75;13.75;;;;;6.35;67.67;103174.69;5118693;27;45396;-82
2022/01/21 09:57:23;;;;;;;;;21.75;16.50;;;;;6.33;67.21;103173.66;5120629;27;46000;-79
2022/01/21 09:59:53;;;;;;;;;19.75;19.75;;;;;6.07;67.21;103098.75;5107651;27;45250;-81
2022/01/21 10:02:25;;;;;;;;;18.25;13.75;;;;;6.17;67.25;103114.22;5128388;27;45465;-76
2022/01/21 10:04:52;;;;;;;;;12.00;11.25;;;;;6.29;66.85;103117.59;5141753;27;45429;-77
2022/01/21 10:07:21;;;;;;;;;13.50;11.00;;;;;6.11;66.49;103090.28;5121530;27;45519;-77
2022/01/21 10:09:48;;;;;;;;;24.25;17.25;;;;;6.65;65.92;103184.47;5121245;27;45263;-76
2022/01/21 10:12:14;;;;;;;;;12.25;10.00;;;;;6.42;66.38;103135.91;5139132;27;45220;-79
2022/01/21 10:14:41;;;;;;;;;11.50;6.75;;;;;6.68;65.73;103158.47;5135831;27;45453;-76
2022/01/21 10:17:07;;;;;;;;;16.75;13.00;;;;;6.79;65.38;103167.91;5130787;27;46456;-78
2022/01/21 10:19:35;;;;;;;;;13.50;11.00;;;;;6.96;65.64;103200.34;5122439;27;45329;-78
2022/01/21 10:22:16;;;;;;;;;10.75;10.75;;;;;6.62;65.57;103120.53;5123420;27;45381;-80
2022/01/21 10:25:01;;;;;;;;;22.25;18.00;;;;;7.15;65.03;103184.94;5118175;27;45306;-79
2022/01/21 10:27:35;;;;;;;;;15.50;14.25;;;;;7.22;65.64;103180.09;5117738;27;45386;-79
2022/01/21 10:30:02;;;;;;;;;15.75;15.50;;;;;7.25;65.27;103189.03;5131734;27;45375;-78
2022/01/21 10:32:39;;;;;;;;;18.25;16.00;;;;;6.99;65.25;103132.44;5118258;27;45471;-81
2022/01/21 10:35:22;;;;;;;;;15.50;13.75;;;;;6.57;64.95;103053.03;5121281;27;45379;-81
2022/01/21 10:37:48;;;;;;;;;21.00;19.00;;;;;7.31;65.34;103191.13;5121034;27;46275;-79
2022/01/21 10:40:16;;;;;;;;;19.50;16.50;;;;;6.72;64.45;103091.47;5130860;27;45559;-77
2022/01/21 10:42:42;;;;;;;;;19.00;16.75;;;;;6.66;64.85;103075.38;5132607;27;45478;-77
2022/01/21 10:45:08;;;;;;;;;15.00;13.75;;;;;6.73;64.91;103085.41;5142311;27;45182;-78
2022/01/21 10:47:36;;;;;;;;;12.25;12.25;;;;;7.26;64.71;103179.44;5141822;27;46379;-76
2022/01/21 10:50:11;;;;;;;;;16.25;15.75;;;;;7.24;64.79;103183.69;5122495;27;45622;-77
2022/01/21 10:52:39;;;;;;;;;19.25;14.00;;;;;7.18;65.17;103180.72;5135932;27;45369;-78
2022/01/21 10:55:36;;;;;;;;;17.25;15.25;;;;;6.60;65.14;103074.97;5134122;27;45488;-76
2022/01/21 10:58:09;;;;;;;;;15.50;15.50;;;;;7.03;65.11;103150.13;5122282;27;46143;-77
2022/01/21 11:00:36;;;;;;;;;17.00;12.75;;;;;6.95;65.24;103125.19;5134735;27;45298;-79
2022/01/21 11:03:10;;;;;;;;;23.50;17.00;;;;;7.20;64.52;103147.63;5126259;27;45245;-77
2022/01/21 11:05:40;;;;;;;;;17.25;15.00;;;;;7.31;64.32;103157.03;5106872;27;45371;-78
2022/01/21 11:08:09;;;;;;;;;22.00;17.50;;;;;7.33;64.25;103158.94;5128908;27;47081;-76
2022/01/21 11:10:40;;;;;;;;;18.25;16.75;;;;;7.32;64.63;103162.38;5139603;27;45433;-76
2022/01/21 11:13:23;;;;;;;;;13.50;12.25;;;;;7.31;64.97;103163.19;5126230;27;45167;-78
2022/01/21 11:16:04;;;;;;;;;15.75;14.75;;;;;7.34;65.05;103165.97;5121646;27;45432;-76
2022/01/21 11:18:31;;;;;;;;;19.50;17.00;;;;;7.38;64.94;103160.13;5120985;27;46307;-76
2022/01/21 11:21:04;;;;;;;;;19.00;13.00;;;;;7.41;64.69;103167.25;5120615;27;45338;-77
2022/01/21 11:23:30;;;;;;;;;20.00;19.00;;;;;7.47;64.22;103167.63;5120695;27;45345;-78
2022/01/21 11:26:00;;;;;;;;;20.00;13.50;;;;;7.34;64.09;103129.25;5120426;27;45274;-78
2022/01/21 11:28:46;;;;;;;;;15.00;15.00;;;;;7.67;63.84;103172.31;5123542;27;45577;-81
2022/01/21 11:31:15;;;;;;;;;18.50;14.75;;;;;7.64;63.83;103153.78;5134464;27;45452;-77
2022/01/21 11:33:40;;;;;;;;;18.00;16.00;;;;;7.71;63.65;103158.53;5120813;27;45356;-81
2022/01/21 11:36:06;;;;;;;;;22.00;17.50;;;;;7.72;63.81;103162.06;5127874;27;45531;-81
2022/01/21 11:38:37;;;;;;;;;18.50;14.25;;;;;7.56;64.43;103144.56;5103481;27;47152;-80
2022/01/21 11:41:06;;;;;;;;;22.25;18.50;;;;;7.66;64.26;103160.00;5126158;27;45468;-82
2022/01/21 11:43:33;;;;;;;;;16.75;15.00;;;;;7.69;63.48;103151.41;5102067;27;45254;-81
2022/01/21 11:46:17;;;;;;;;;13.00;13.00;;;;;7.55;63.90;103124.41;5104990;27;45625;-82
2022/01/21 11:48:52;;;;;;;;;18.50;17.00;;;;;7.86;63.47;103158.53;5120777;27;47192;-80
2022/01/21 11:51:27;;;;;;;;;18.00;16.00;;;;;7.92;63.55;103143.16;5131676;27;45527;-80
2022/01/21 11:53:57;;;;;;;;;13.00;13.00;;;;;7.96;62.74;103155.59;5120120;27;45518;-82
2022/01/21 11:56:48;;;;;;;;;14.75;14.75;;;;;7.94;63.37;103141.50;5108746;27;45395;-82
2022/01/21 11:59:22;;;;;;;;;18.00;14.25;;;;;7.68;63.13;103092.78;5141188;27;46722;-80
2022/01/21 12:01:48;;;;;;;;;15.25;12.50;;;;;7.66;62.78;103090.91;5134928;27;45417;-80
2022/01/21 12:04:38;;;;;;;;;11.75;11.75;;;;;8.06;62.84;103151.78;5120007;27;45476;-81
2022/01/21 12:07:03;;;;;;;;;13.00;11.50;;;;;8.04;62.48;103132.44;5056362;28;45352;-79
2022/01/21 12:10:07;;;;;;;;;12.75;8.00;;;;;8.13;62.16;103147.78;5056921;28;45641;-80
2022/01/21 12:12:49;;;;;;;;;11.00;11.00;;;;;8.15;62.22;103151.41;5056807;28;45500;-82
2022/01/21 12:15:32;;;;;;;;;12.25;11.25;;;;;8.21;62.08;103157.00;5057200;28;45225;-82
2022/01/21 12:18:36;;;;;;;;;12.75;12.50;;;;;7.92;61.70;103103.78;5056447;28;45440;-78
2022/01/21 12:21:23;;;;;;;;;13.75;12.75;;;;;7.84;62.38;103089.31;5043142;28;46361;-79